Airport Name : Stokmarknes (Skagen)

Other Name : Stokmarknes

ICAO : ENSK

IATA : SKN

FAA :

Latitude : 68.349

Longitude : 15.0146

Country : Norway

Local Date and Time : 23 Sep 2021 13:22

 

TAF (Terminal Aerodrome Forecast)

 

METAR (METeorological Aerodrome Report)

ENSK 231050Z 15009KT 9999 FEW029 SCT041 11/06 Q0991

ENSK 231020Z 15009KT 9999 FEW027 SCT042 10/05 Q0991

ENSK 230950Z 14009KT 9999 FEW027 SCT040 11/06 Q0992

ENSK 230920Z 14007KT 9999 FEW025 SCT040 10/05 Q0992

ENSK 230850Z 15005KT 9999 FEW023 SCT038 10/05 Q0992

ENSK 230820Z 16008KT 9999 FEW019 SCT038 10/06 Q0993

ENSK 230750Z 12004KT 9999 VCSH FEW018 BKN038 09/06 Q0993

To Charter a Jet Click here.